Asopos — A8HS6 — position and weather

sailwx.info

Track history (hours):
 
Tides and Currents Weather Stations Pressure Air Temp Water Temp Dewpoint Dewpoint Depression Visibility Wind Speed Wind Dir Waves Ship Positions

Asopos

Last reported at 2017-Nov-04 13:03 UTC. Time now 2017-Nov-17 21:22 UTC.
Position N 16°53' W 060°36'.
Warning: this ship's position is 13 days out of date.

Length 213 m; draft 7.5 m.

Type: Tanker. MMSI: 636012767.

Date/timePositionNaut miles runAvg speedWind from/ knotsBaromVisibWave heightAir tempDewpointWater temp
2017-Nov-04 13:03N 16°53' W 060°36'1 9.0
2017-Nov-04 12:58N 16°53' W 060°37'14 8.7
2017-Nov-04 11:22N 16°51' W 060°51'3 8.5
2017-Nov-04 11:00N 16°51' W 060°54'4 8.0
2017-Nov-04 10:30N 16°50' W 060°58'4 7.9
2017-Nov-04 10:00N 16°49' W 061°02'4 8.1
2017-Nov-04 09:30N 16°49' W 061°07'4 8.5
2017-Nov-04 09:00N 16°48' W 061°11'4 8.4
2017-Nov-04 08:30N 16°47' W 061°15'4 8.2
2017-Nov-04 08:00N 16°47' W 061°19'4 8.1
2017-Nov-04 07:30N 16°46' W 061°24'4 8.1
2017-Nov-04 07:00N 16°45' W 061°28'4 8.1
2017-Nov-04 06:30N 16°44' W 061°32'4 8.1
2017-Nov-04 06:00N 16°43' W 061°36'4 7.8
2017-Nov-04 05:30N 16°42' W 061°40'4 8.0
2017-Nov-04 05:00N 16°41' W 061°44'4 8.0
2017-Nov-04 04:30N 16°40' W 061°48'4 8.1
2017-Nov-04 04:00N 16°38' W 061°52'4 8.1
2017-Nov-04 03:30N 16°37' W 061°56'4 8.1
2017-Nov-04 03:00N 16°36' W 061°60'4 8.0
2017-Nov-04 02:30N 16°35' W 062°04'4 8.0
2017-Nov-04 02:00N 16°33' W 062°08'4 7.7
2017-Nov-04 01:30N 16°33' W 062°12'4 7.8
2017-Nov-04 01:00N 16°34' W 062°16'4 8.0
2017-Nov-04 00:30N 16°34' W 062°20'4 8.0
2017-Nov-04 00:00N 16°34' W 062°24'4 8.0
2017-Nov-03 23:30N 16°35' W 062°28'4 8.0
2017-Nov-03 23:00N 16°35' W 062°32'4 7.9
2017-Nov-03 22:30N 16°35' W 062°37'4 7.6
2017-Nov-03 22:00N 16°36' W 062°40'4 7.7
2017-Nov-03 21:30N 16°36' W 062°44'5 7.9
2017-Nov-03 20:56N 16°37' W 062°49'  
Track history (hours):
 
Tides and Currents Weather Stations Pressure Air Temp Water Temp Dewpoint Dewpoint Depression Visibility Wind Speed Wind Dir Waves Ship Positions

Asopos

Last reported at 2017-Nov-04 13:03 UTC. Time now 2017-Nov-17 21:22 UTC.
Position N 16°53' W 060°36'.
Warning: this ship's position is 13 days out of date.

Length 213 m; draft 7.5 m.

Type: Tanker. MMSI: 636012767.

Date/timePositionNaut miles runAvg speedWind from/ knotsBaromVisibWave heightAir tempDewpointWater temp
2017-Nov-04 13:03N 16°53' W 060°36'1 9.0
2017-Nov-04 12:58N 16°53' W 060°37'14 8.7
2017-Nov-04 11:22N 16°51' W 060°51'3 8.5
2017-Nov-04 11:00N 16°51' W 060°54'4 8.0
2017-Nov-04 10:30N 16°50' W 060°58'4 7.9
2017-Nov-04 10:00N 16°49' W 061°02'4 8.1
2017-Nov-04 09:30N 16°49' W 061°07'4 8.5
2017-Nov-04 09:00N 16°48' W 061°11'4 8.4
2017-Nov-04 08:30N 16°47' W 061°15'4 8.2
2017-Nov-04 08:00N 16°47' W 061°19'4 8.1
2017-Nov-04 07:30N 16°46' W 061°24'4 8.1
2017-Nov-04 07:00N 16°45' W 061°28'4 8.1
2017-Nov-04 06:30N 16°44' W 061°32'4 8.1
2017-Nov-04 06:00N 16°43' W 061°36'4 7.8
2017-Nov-04 05:30N 16°42' W 061°40'4 8.0
2017-Nov-04 05:00N 16°41' W 061°44'4 8.0
2017-Nov-04 04:30N 16°40' W 061°48'4 8.1
2017-Nov-04 04:00N 16°38' W 061°52'4 8.1
2017-Nov-04 03:30N 16°37' W 061°56'4 8.1
2017-Nov-04 03:00N 16°36' W 061°60'4 8.0
2017-Nov-04 02:30N 16°35' W 062°04'4 8.0
2017-Nov-04 02:00N 16°33' W 062°08'4 7.7
2017-Nov-04 01:30N 16°33' W 062°12'4 7.8
2017-Nov-04 01:00N 16°34' W 062°16'4 8.0
2017-Nov-04 00:30N 16°34' W 062°20'4 8.0
2017-Nov-04 00:00N 16°34' W 062°24'4 8.0
2017-Nov-03 23:30N 16°35' W 062°28'4 8.0
2017-Nov-03 23:00N 16°35' W 062°32'4 7.9
2017-Nov-03 22:30N 16°35' W 062°37'4 7.6
2017-Nov-03 22:00N 16°36' W 062°40'4 7.7
2017-Nov-03 21:30N 16°36' W 062°44'5 7.9
2017-Nov-03 20:56N 16°37' W 062°49'  

Dump ship's entire track history